Time;durP1;ratioP1;P1;durP2;ratioP2;P2;SDS_P1;SDS_P2;PMS_P1;PMS_P2;Temp;Humidity;BMP_temperature;BMP_pressure;BME280_temperature;BME280_humidity;BME280_pressure;Samples;Min_cycle;Max_cycle;Signal;HPM_P1;HPM_P2
2023/07/18 00:02:21;;;;;;;1.37;1.27;;;;;;;14.18;74.77;102058.97;5056140;28;20029;-87
2023/07/18 00:04:46;;;;;;;1.23;1.15;;;;;;;14.15;74.99;102062.44;5057076;28;20021;-87
2023/07/18 00:07:12;;;;;;;1.30;1.20;;;;;;;14.10;74.91;102055.53;5055456;28;20052;-87
2023/07/18 00:09:38;;;;;;;1.30;1.20;;;;;;;14.05;75.31;102059.09;5056848;28;20021;-87
2023/07/18 00:12:05;;;;;;;1.20;1.10;;;;;;;13.97;75.29;102053.06;5056582;28;20114;-87
2023/07/18 00:14:31;;;;;;;1.00;1.00;;;;;;;13.96;75.38;102059.16;5055247;28;20021;-87
2023/07/18 00:16:57;;;;;;;1.20;1.07;;;;;;;13.92;75.85;102060.09;5055978;28;20036;-87
2023/07/18 00:19:22;;;;;;;1.50;1.10;;;;;;;13.92;75.61;102059.19;5055932;28;20040;-88
2023/07/18 00:21:47;;;;;;;1.73;1.33;;;;;;;13.87;75.74;102059.25;5055581;28;20021;-86
2023/07/18 00:24:13;;;;;;;1.73;1.00;;;;;;;13.86;76.65;102054.91;5051034;28;20072;-87
2023/07/18 00:26:39;;;;;;;1.30;1.20;;;;;;;13.80;76.19;102060.19;5035748;28;20026;-87
2023/07/18 00:29:05;;;;;;;1.37;1.27;;;;;;;13.75;76.16;102052.41;5035310;28;20091;-87
2023/07/18 00:31:32;;;;;;;;;;;;;;;13.71;76.33;102062.03;5036281;28;20025;-87
2023/07/18 00:33:57;;;;;;;1.10;1.10;;;;;;;13.68;76.50;102058.59;5051296;22;19960;-87
2023/07/18 00:36:23;;;;;;;1.30;1.20;;;;;;;13.66;76.67;102063.78;5035057;28;20068;-87
2023/07/18 00:38:49;;;;;;;1.93;1.10;;;;;;;13.65;76.61;102063.81;5036048;28;20033;-87
2023/07/18 00:41:14;;;;;;;1.17;1.08;;;;;;;13.57;76.72;102058.66;5036271;28;20095;-87
2023/07/18 00:43:39;;;;;;;1.40;1.30;;;;;;;13.54;76.98;102056.06;5035068;28;20108;-88
2023/07/18 00:46:08;;;;;;;1.47;1.37;;;;;;;13.50;76.60;102051.78;5035987;28;20541;-88
2023/07/18 00:48:34;;;;;;;1.20;1.10;;;;;;;13.44;77.07;102047.47;5035719;28;20385;-88
2023/07/18 00:51:00;;;;;;;1.13;1.05;;;;;;;13.46;77.00;102053.50;5035306;28;20385;-87
2023/07/18 00:53:26;;;;;;;1.02;0.93;;;;;;;13.37;77.11;102049.22;5035440;28;20061;-88
2023/07/18 00:55:53;;;;;;;1.40;1.27;;;;;;;13.36;77.19;102050.09;5036157;28;20032;-87
2023/07/18 00:58:19;;;;;;;1.40;1.30;;;;;;;13.37;77.22;102050.94;5034906;28;20025;-89
2023/07/18 01:00:44;;;;;;;1.38;1.27;;;;;;;13.35;77.66;102050.97;5036056;28;20096;-88
2023/07/18 01:03:10;;;;;;;1.33;1.27;;;;;;;13.30;77.89;102042.31;5035116;28;20453;-88
2023/07/18 01:05:37;;;;;;;1.83;1.40;;;;;;;13.22;77.97;102031.06;5035020;28;20026;-88
2023/07/18 01:08:03;;;;;;;1.20;1.10;;;;;;;13.22;78.23;102049.31;5035946;28;20100;-88
2023/07/18 01:10:28;;;;;;;1.20;1.10;;;;;;;13.15;77.95;102039.84;5038253;28;20105;-88
2023/07/18 01:13:01;;;;;;;1.63;1.30;;;;;;;13.17;77.92;102045.91;5035514;28;20029;-88
2023/07/18 01:15:29;;;;;;;2.30;1.23;;;;;;;13.19;77.77;102049.34;5044991;22;21156;-88
2023/07/18 01:17:55;;;;;;;1.50;1.20;;;;;;;13.11;78.07;102045.06;5055327;28;20056;-89
2023/07/18 01:20:26;;;;;;;1.57;1.20;;;;;;;13.13;77.84;102040.69;5054876;28;20041;-86
2023/07/18 01:22:54;;;;;;;1.50;1.40;;;;;;;13.15;78.32;102045.91;5055035;28;20036;-88
2023/07/18 01:25:20;;;;;;;1.42;1.30;;;;;;;13.11;78.39;102037.22;5054257;28;20025;-88
2023/07/18 01:27:50;;;;;;;2.05;1.23;;;;;;;13.07;78.44;102034.66;5055593;28;20025;-89
2023/07/18 01:30:19;;;;;;;1.38;1.27;;;;;;;13.04;78.91;102032.94;5054631;28;20032;-89
2023/07/18 01:32:48;;;;;;;1.40;1.30;;;;;;;13.00;78.89;102026.03;5054801;28;20484;-88
2023/07/18 01:35:15;;;;;;;1.20;1.10;;;;;;;13.02;79.31;102032.09;5055195;28;20504;-89
2023/07/18 01:37:44;;;;;;;1.45;1.35;;;;;;;13.01;79.09;102032.06;5055559;28;20032;-88
2023/07/18 01:40:14;;;;;;;1.98;1.63;;;;;;;13.02;78.75;102034.69;5054693;28;20102;-88
2023/07/18 01:42:40;;;;;;;1.65;1.55;;;;;;;13.00;79.17;102031.22;5055093;28;20036;-89
2023/07/18 01:45:09;;;;;;;2.45;1.63;;;;;;;12.96;79.10;102021.69;5054476;28;20167;-89
2023/07/18 01:47:37;;;;;;;1.50;1.40;;;;;;;12.91;79.51;102019.13;5054541;28;20033;-88
2023/07/18 01:50:04;;;;;;;1.40;1.30;;;;;;;12.87;79.83;102025.25;5055093;28;20029;-89
2023/07/18 01:52:32;;;;;;;1.83;1.38;;;;;;;12.87;79.81;102016.53;5054846;28;20388;-88
2023/07/18 01:54:59;;;;;;;1.70;1.60;;;;;;;12.85;80.78;102016.56;5055002;28;20029;-88
2023/07/18 01:57:26;;;;;;;;;;;;;;;12.82;80.21;102007.03;5054982;28;20025;-89
2023/07/18 01:59:51;;;;;;;2.05;1.60;;;;;;;12.85;79.83;102016.56;5054552;28;19935;-89
2023/07/18 02:02:17;;;;;;;1.53;1.43;;;;;;;12.84;79.97;102004.41;5054831;28;20021;-88
2023/07/18 02:04:43;;;;;;;2.38;1.70;;;;;;;12.79;80.12;102004.44;5054888;28;20025;-89
2023/07/18 02:07:08;;;;;;;1.70;1.50;;;;;;;12.83;80.17;102007.88;5053998;28;20366;-89
2023/07/18 02:09:34;;;;;;;2.10;1.77;;;;;;;12.83;80.82;102005.28;5054735;28;20032;-89
2023/07/18 02:12:00;;;;;;;1.70;1.58;;;;;;;12.81;81.30;102004.41;5054572;28;20547;-88
2023/07/18 02:14:25;;;;;;;1.90;1.60;;;;;;;12.79;80.96;102007.03;5053387;28;20033;-89
2023/07/18 02:16:50;;;;;;;1.57;1.47;;;;;;;12.77;81.30;101995.75;5054647;28;20102;-89
2023/07/18 02:19:16;;;;;;;1.47;1.23;;;;;;;12.76;81.12;101996.63;5057896;28;20083;-88
2023/07/18 02:21:41;;;;;;;2.37;1.57;;;;;;;12.71;80.78;101985.41;5054077;28;20031;-89
2023/07/18 02:24:06;;;;;;;1.50;1.40;;;;;;;12.76;81.13;101996.63;5053906;28;20036;-89
2023/07/18 02:26:32;;;;;;;1.70;1.60;;;;;;;12.76;81.24;101995.78;5054364;28;20028;-89
2023/07/18 02:28:57;;;;;;;2.10;1.63;;;;;;;12.79;81.63;102004.44;5053762;28;20175;-89
2023/07/18 02:31:22;;;;;;;1.70;1.60;;;;;;;12.79;81.68;101998.34;5054265;28;20029;-89
2023/07/18 02:33:54;;;;;;;1.70;1.60;;;;;;;12.79;81.27;102004.44;5054310;28;20024;-89
2023/07/18 02:36:21;;;;;;;2.03;1.73;;;;;;;12.79;81.27;102003.56;5053306;28;20020;-89
2023/07/18 02:38:47;;;;;;;1.63;1.52;;;;;;;12.78;80.94;102005.31;5053731;28;20024;-89
2023/07/18 02:41:12;;;;;;;1.60;1.50;;;;;;;12.77;81.82;102003.56;5053735;28;20032;-89
2023/07/18 02:43:37;;;;;;;1.50;1.40;;;;;;;12.71;81.86;101990.59;5053649;28;20056;-89
2023/07/18 02:46:03;;;;;;;1.43;1.33;;;;;;;12.71;81.62;102000.13;5054010;28;20104;-89
2023/07/18 02:48:28;;;;;;;1.70;1.60;;;;;;;12.69;82.25;101996.66;5053426;28;20522;-89
2023/07/18 02:50:53;;;;;;;1.50;1.40;;;;;;;12.58;82.51;101991.53;5053819;28;20021;-90
2023/07/18 02:53:19;;;;;;;2.23;1.80;;;;;;;12.60;83.87;102005.41;5053632;28;20059;-90
2023/07/18 02:55:44;;;;;;;1.30;1.20;;;;;;;12.55;82.69;102004.56;5053170;28;20392;-90
2023/07/18 02:58:09;;;;;;;1.53;1.43;;;;;;;12.53;82.94;102001.97;5052937;28;20032;-90
2023/07/18 03:00:36;;;;;;;1.73;1.33;;;;;;;12.52;82.35;102002.84;5053806;28;20029;-89
2023/07/18 03:03:02;;;;;;;1.80;1.40;;;;;;;12.51;82.70;101994.16;5053110;28;20384;-89
2023/07/18 03:05:27;;;;;;;1.85;1.50;;;;;;;12.52;82.13;101997.63;5053631;28;20083;-90
2023/07/18 03:07:54;;;;;;;1.70;1.60;;;;;;;12.50;81.77;101997.63;5053722;28;20025;-89
2023/07/18 03:10:20;;;;;;;1.40;1.30;;;;;;;12.47;82.17;101988.97;5053144;28;20123;-90
2023/07/18 03:12:46;;;;;;;2.47;1.45;;;;;;;12.47;83.55;101994.19;5053293;28;20025;-89
2023/07/18 03:15:11;;;;;;;1.40;1.30;;;;;;;12.39;82.40;101989.00;5052149;28;20503;-89
2023/07/18 03:17:37;;;;;;;1.20;1.20;;;;;;;12.41;82.32;101997.69;5033115;28;20040;-89
2023/07/18 03:20:16;;;;;;;1.70;1.60;;;;;;;12.38;82.59;102002.91;5033405;28;20458;-90
2023/07/18 03:22:44;;;;;;;1.80;1.63;;;;;;;12.35;82.52;102001.19;5014566;28;20386;-89
2023/07/18 03:25:11;;;;;;;1.52;1.42;;;;;;;12.31;82.42;101988.19;5013094;28;20030;-88
2023/07/18 03:27:36;;;;;;;1.45;1.35;;;;;;;12.30;82.17;101987.31;5017838;28;20113;-89
2023/07/18 03:30:06;;;;;;;1.53;1.43;;;;;;;12.33;82.60;101983.84;5017948;28;20113;-90
2023/07/18 03:32:32;;;;;;;1.70;1.60;;;;;;;12.24;82.33;101979.53;5017417;28;20096;-90
2023/07/18 03:35:00;;;;;;;1.70;1.60;;;;;;;12.29;82.22;101997.72;5017843;28;20462;-90
2023/07/18 03:37:27;;;;;;;1.63;1.52;;;;;;;12.27;82.44;101987.34;5026655;28;20030;-90
2023/07/18 03:39:52;;;;;;;1.95;1.75;;;;;;;12.25;82.18;101989.06;5037230;28;20100;-90
2023/07/18 03:42:18;;;;;;;2.47;1.70;;;;;;;12.24;82.31;101992.53;5036367;28;20152;-90
2023/07/18 03:44:43;;;;;;;2.87;1.77;;;;;;;12.26;82.48;101997.75;5037544;28;20374;-90
2023/07/18 03:47:08;;;;;;;2.40;1.50;;;;;;;12.12;82.20;101980.44;5036644;28;20022;-90
2023/07/18 03:49:34;;;;;;;1.67;1.47;;;;;;;12.15;82.24;102003.88;5037825;28;20097;-89
2023/07/18 03:52:00;;;;;;;1.67;1.50;;;;;;;12.11;82.28;101996.94;5037061;28;20021;-90
2023/07/18 03:54:25;;;;;;;1.52;1.40;;;;;;;12.09;82.35;101987.41;5036648;28;20040;-90
2023/07/18 03:56:51;;;;;;;1.63;1.30;;;;;;;12.06;82.30;101988.25;5037387;28;20021;-90
2023/07/18 03:59:16;;;;;;;3.60;1.57;;;;;;;12.05;82.37;101992.63;5036667;28;20030;-90
2023/07/18 04:01:41;;;;;;;2.30;1.50;;;;;;;12.03;82.48;101985.69;5037231;28;20422;-90
2023/07/18 04:04:06;;;;;;;1.60;1.50;;;;;;;12.03;82.61;101985.69;5036850;28;20033;-90
2023/07/18 04:06:32;;;;;;;1.60;1.50;;;;;;;11.96;82.67;101970.91;5036839;28;20116;-90
2023/07/18 04:08:58;;;;;;;1.57;1.43;;;;;;;11.88;82.71;101963.13;5036612;28;20029;-90
2023/07/18 04:11:23;;;;;;;1.50;1.40;;;;;;;11.97;82.65;101983.06;5036662;28;20032;-90
2023/07/18 04:13:48;;;;;;;1.60;1.50;;;;;;;11.90;83.15;101964.00;5036715;28;20025;-90
2023/07/18 04:16:14;;;;;;;1.37;1.27;;;;;;;11.88;83.10;101963.13;5036392;28;20108;-90
2023/07/18 04:18:39;;;;;;;1.10;1.10;;;;;;;11.89;83.17;101963.16;5036599;28;20028;-89
2023/07/18 04:21:04;;;;;;;1.40;1.30;;;;;;;11.89;82.77;101959.66;5036962;28;20441;-90
2023/07/18 04:23:30;;;;;;;2.57;1.60;;;;;;;11.88;83.90;101965.72;5036815;28;20454;-89
2023/07/18 04:26:01;;;;;;;1.50;1.40;;;;;;;11.84;83.37;101962.28;5036419;28;20029;-90
2023/07/18 04:28:34;;;;;;;1.80;1.40;;;;;;;11.85;83.60;101951.00;5036152;28;20029;-90
2023/07/18 04:31:00;;;;;;;1.52;1.42;;;;;;;11.87;83.99;101957.06;5036942;28;20053;-90
2023/07/18 04:33:25;;;;;;;3.30;1.67;;;;;;;11.87;83.04;101959.69;5036513;28;20040;-90
2023/07/18 04:35:51;;;;;;;1.50;1.23;;;;;;;11.93;83.28;101955.34;5036302;28;20021;-91
2023/07/18 04:38:16;;;;;;;1.40;1.30;;;;;;;11.91;84.81;101955.31;5034757;28;20080;-90
2023/07/18 04:40:42;;;;;;;1.63;1.30;;;;;;;11.92;84.79;101961.41;5036702;28;20021;-90
2023/07/18 04:43:08;;;;;;;1.07;1.03;;;;;;;11.89;84.10;101957.06;5036062;28;20017;-91
2023/07/18 04:45:40;;;;;;;1.38;1.20;;;;;;;11.90;83.70;101956.19;5036263;28;20029;-89
2023/07/18 04:48:06;;;;;;;1.20;1.10;;;;;;;11.94;83.56;101960.53;5035651;28;20022;-89
2023/07/18 04:50:31;;;;;;;1.03;1.00;;;;;;;12.00;84.66;101963.13;5035272;28;20114;-89
2023/07/18 04:52:56;;;;;;;2.23;1.40;;;;;;;12.03;85.55;101960.53;5035937;28;20029;-89
2023/07/18 04:55:22;;;;;;;1.33;0.90;;;;;;;12.08;85.33;101959.66;5035504;28;20112;-87
2023/07/18 04:57:48;;;;;;;2.87;1.37;;;;;;;12.12;84.14;101963.97;5035236;28;20120;-90
2023/07/18 05:00:14;;;;;;;0.90;0.90;;;;;;;12.18;85.24;101966.56;5035661;28;20025;-91
2023/07/18 05:02:40;;;;;;;0.77;0.77;;;;;;;12.23;84.55;101962.19;5036363;28;20025;-93
2023/07/18 05:05:06;;;;;;;1.25;1.10;;;;;;;12.30;85.59;101965.63;5036453;28;20033;-93
2023/07/18 05:07:31;;;;;;;1.10;1.00;;;;;;;12.30;84.74;101958.69;5035720;28;20030;-93
2023/07/18 05:09:57;;;;;;;2.30;1.20;;;;;;;12.37;86.76;101951.72;5034327;28;20060;-87
2023/07/18 05:12:22;;;;;;;0.97;0.93;;;;;;;12.40;84.25;101951.69;5034881;28;20026;-88
2023/07/18 05:14:50;;;;;;;1.60;1.23;;;;;;;12.45;85.85;101952.53;5035161;28;20473;-88
2023/07/18 05:17:15;;;;;;;2.33;1.67;;;;;;;12.50;86.84;101952.50;5031056;22;20054;-89
2023/07/18 05:19:41;;;;;;;1.37;1.27;;;;;;;12.60;85.78;101958.53;4995765;28;20030;-89
2023/07/18 05:22:06;;;;;;;1.40;1.30;;;;;;;12.66;85.34;101955.88;4995110;28;20023;-88
2023/07/18 05:24:31;;;;;;;1.50;1.40;;;;;;;12.72;87.48;101961.03;4994707;28;20030;-88
2023/07/18 05:26:57;;;;;;;1.30;1.30;;;;;;;12.71;86.04;101945.44;4995496;28;20034;-88
2023/07/18 05:29:22;;;;;;;1.50;1.40;;;;;;;12.83;84.55;101953.19;4995544;28;20029;-88
2023/07/18 05:31:47;;;;;;;1.10;1.10;;;;;;;12.91;84.37;101960.94;4995387;28;20030;-88
2023/07/18 05:34:13;;;;;;;1.23;1.13;;;;;;;12.92;85.21;101942.69;4995208;28;20030;-87
2023/07/18 05:36:38;;;;;;;1.00;0.97;;;;;;;13.03;84.17;101942.63;4995204;28;20045;-89
2023/07/18 05:39:03;;;;;;;0.90;0.90;;;;;;;13.09;83.96;101944.31;4994101;28;20470;-88
2023/07/18 05:41:31;;;;;;;1.10;1.00;;;;;;;13.21;85.02;101956.34;4995026;28;20034;-88
2023/07/18 05:43:57;;;;;;;1.27;1.13;;;;;;;13.25;83.92;101947.66;4995071;28;20026;-88
2023/07/18 05:46:22;;;;;;;0.77;0.77;;;;;;;13.32;83.98;101944.09;4994156;28;20049;-88
2023/07/18 05:48:47;;;;;;;1.50;1.07;;;;;;;13.42;84.16;101958.81;4994536;28;20470;-88
2023/07/18 05:51:13;;;;;;;0.83;0.83;;;;;;;13.43;83.97;101950.09;4993909;28;20046;-87
2023/07/18 05:53:38;;;;;;;3.93;1.17;;;;;;;13.52;84.05;101953.50;4994394;28;20092;-86
2023/07/18 05:56:04;;;;;;;0.80;0.80;;;;;;;13.62;83.80;101969.94;5013562;28;20054;-85
2023/07/18 05:58:29;;;;;;;1.03;1.00;;;;;;;13.67;84.44;101960.31;5012111;28;20034;-87
2023/07/18 06:00:55;;;;;;;0.80;0.80;;;;;;;13.71;83.37;101962.00;5013366;28;20022;-88
2023/07/18 06:03:23;;;;;;;1.93;1.50;;;;;;;13.80;83.86;101963.66;5013875;28;20481;-88
2023/07/18 06:05:52;;;;;;;1.13;1.02;;;;;;;13.85;84.45;101960.13;5013374;28;20449;-88
2023/07/18 06:08:18;;;;;;;1.30;1.13;;;;;;;13.91;83.38;101964.41;5013854;28;20022;-87
2023/07/18 06:10:43;;;;;;;0.70;0.67;;;;;;;14.02;82.85;101969.47;5014050;28;20029;-88
2023/07/18 06:13:08;;;;;;;1.10;1.00;;;;;;;14.07;83.52;101969.47;5007301;28;20110;-87
2023/07/18 06:15:34;;;;;;;0.80;0.80;;;;;;;14.15;82.96;101968.47;4994431;28;20098;-87
2023/07/18 06:17:59;;;;;;;1.03;1.03;;;;;;;14.22;84.22;101966.63;5024499;28;20033;-88
2023/07/18 06:20:24;;;;;;;0.90;0.90;;;;;;;14.41;83.56;101962.03;5033214;28;20029;-92
2023/07/18 06:22:50;;;;;;;1.17;1.07;;;;;;;15.37;83.65;101967.59;5033879;28;20029;-89
2023/07/18 06:25:17;;;;;;;1.43;0.97;;;;;;;16.24;82.17;101964.22;5033511;28;20628;-92
2023/07/18 06:27:42;;;;;;;1.27;1.08;;;;;;;16.89;78.68;101964.53;5034755;28;20401;-93
2023/07/18 06:30:08;;;;;;;1.43;1.33;;;;;;;17.34;77.60;101951.16;5034228;28;20018;-91
2023/07/18 06:32:33;;;;;;;2.40;1.35;;;;;;;18.02;73.81;101969.50;5041589;28;20013;-88
2023/07/18 06:34:59;;;;;;;1.63;1.40;;;;;;;18.27;72.89;101968.81;5053081;28;20032;-92
2023/07/18 06:37:24;;;;;;;1.20;1.10;;;;;;;18.37;73.32;101965.84;5054236;28;20021;-93
2023/07/18 06:39:50;;;;;;;1.13;1.07;;;;;;;18.64;71.16;101962.41;5054110;28;20504;-92
2023/07/18 06:42:16;;;;;;;3.00;1.70;;;;;;;18.97;69.41;101967.53;5052754;28;20029;-88
2023/07/18 06:44:41;;;;;;;1.13;1.13;;;;;;;19.40;69.85;101963.47;5053787;28;20024;-89
2023/07/18 06:47:06;;;;;;;1.60;1.40;;;;;;;19.97;67.39;101971.13;5049314;28;20041;-86
2023/07/18 06:49:32;;;;;;;0.70;0.70;;;;;;;20.37;68.12;101971.41;5032751;28;20092;-87
2023/07/18 06:51:58;;;;;;;0.90;0.90;;;;;;;20.80;67.29;101966.19;5033374;28;20036;-88
2023/07/18 06:54:23;;;;;;;0.70;0.70;;;;;;;21.11;65.99;101959.69;5033066;28;20049;-87
2023/07/18 06:56:48;;;;;;;2.33;1.17;;;;;;;21.26;61.53;101964.28;5032167;28;20032;-88
2023/07/18 06:59:14;;;;;;;1.97;1.20;;;;;;;21.25;63.51;101959.09;5032532;28;20052;-88
2023/07/18 07:01:42;;;;;;;1.10;1.00;;;;;;;21.38;63.31;101955.00;5032817;28;20017;-88
2023/07/18 07:04:08;;;;;;;2.47;1.17;;;;;;;21.47;63.97;101958.16;5031011;28;20050;-88
2023/07/18 07:06:33;;;;;;;1.55;1.10;;;;;;;21.57;62.97;101962.09;5033114;28;20026;-88
2023/07/18 07:08:58;;;;;;;1.50;1.17;;;;;;;21.63;63.18;101955.72;5033081;28;20420;-87
2023/07/18 07:11:27;;;;;;;0.83;0.83;;;;;;;21.66;61.48;101967.00;5032314;28;20030;-87
2023/07/18 07:13:52;;;;;;;1.55;1.00;;;;;;;21.60;59.17;101962.00;5033011;28;20108;-87
2023/07/18 07:16:18;;;;;;;1.27;0.77;;;;;;;21.56;61.35;101958.59;5032038;28;20053;-87
2023/07/18 07:18:43;;;;;;;1.60;1.00;;;;;;;21.48;56.66;101963.34;5032901;28;20029;-88
2023/07/18 07:21:10;;;;;;;1.57;1.07;;;;;;;21.40;58.40;101962.84;5032867;28;20477;-87
2023/07/18 07:23:35;;;;;;;0.98;0.90;;;;;;;21.33;61.11;101964.03;5032184;28;20055;-87
2023/07/18 07:26:00;;;;;;;0.93;0.90;;;;;;;21.41;62.80;101960.13;5032616;28;20496;-87
2023/07/18 07:28:26;;;;;;;0.73;0.73;;;;;;;21.39;59.12;101963.75;5032603;28;20025;-87
2023/07/18 07:30:51;;;;;;;0.83;0.83;;;;;;;21.33;60.12;101959.59;5031865;28;20025;-87
2023/07/18 07:33:18;;;;;;;2.33;0.93;;;;;;;21.48;62.24;101955.44;5032294;28;20124;-87
2023/07/18 07:35:44;;;;;;;0.70;0.70;;;;;;;21.69;59.41;101950.16;5033149;28;20272;-87
2023/07/18 07:38:09;;;;;;;0.77;0.77;;;;;;;21.75;57.60;101956.03;5032046;28;20033;-87
2023/07/18 07:40:35;;;;;;;0.80;0.50;;;;;;;21.71;60.94;101957.09;5032742;28;20053;-88
2023/07/18 07:43:01;;;;;;;0.90;0.60;;;;;;;21.80;59.54;101954.97;5032665;28;20026;-87
2023/07/18 07:45:26;;;;;;;1.00;0.80;;;;;;;21.68;52.20;101961.66;5031510;28;20076;-88
2023/07/18 07:47:51;;;;;;;0.93;0.50;;;;;;;21.50;60.01;101955.38;5032207;28;20033;-87
2023/07/18 07:50:17;;;;;;;1.07;0.70;;;;;;;21.37;53.05;101955.91;5047049;28;20048;-87
2023/07/18 07:52:42;;;;;;;0.53;0.53;;;;;;;21.30;59.35;101951.81;5051464;28;20087;-88
2023/07/18 07:55:11;;;;;;;0.80;0.38;;;;;;;21.44;59.94;101948.59;5051996;28;20485;-88
2023/07/18 07:57:36;;;;;;;0.40;0.40;;;;;;;21.55;60.23;101953.38;5052097;28;20079;-88
2023/07/18 08:00:03;;;;;;;0.87;0.40;;;;;;;21.67;60.78;101946.75;5051634;28;20021;-88
2023/07/18 08:02:28;;;;;;;;;;;;;;;21.90;60.80;101948.34;5052446;28;20041;-87
2023/07/18 08:04:53;;;;;;;;;;;;;;;22.05;54.20;101952.94;5052973;28;19934;-87
2023/07/18 08:07:19;;;;;;;1.53;0.73;;;;;;;22.08;57.43;101951.91;5051097;28;20335;-88
2023/07/18 08:09:45;;;;;;;0.38;0.38;;;;;;;22.04;54.60;101950.34;5052401;28;20032;-88
2023/07/18 08:12:12;;;;;;;0.35;0.35;;;;;;;22.11;58.27;101942.97;5052125;28;20029;-87
2023/07/18 08:14:38;;;;;;;1.17;0.70;;;;;;;22.09;53.82;101935.13;5055207;28;20477;-87
2023/07/18 08:17:04;;;;;;;2.25;0.60;;;;;;;22.10;55.62;101946.56;5055991;28;20074;-89
2023/07/18 08:19:32;;;;;;;1.55;0.45;;;;;;;22.04;51.24;101940.63;5055576;28;20130;-92
2023/07/18 08:21:57;;;;;;;0.40;0.40;;;;;;;22.06;55.16;101941.44;5056766;28;20477;-90
2023/07/18 08:24:23;;;;;;;0.40;0.22;;;;;;;22.13;55.40;101941.97;5055942;28;20110;-90
2023/07/18 08:26:48;;;;;;;0.50;0.50;;;;;;;22.23;52.27;101937.13;5029428;28;20395;-89
2023/07/18 08:29:13;;;;;;;0.33;0.30;;;;;;;22.19;52.18;101938.19;5020849;28;20018;-88
2023/07/18 08:31:38;;;;;;;0.67;0.30;;;;;;;22.23;49.47;101931.84;5017258;28;20481;-89
2023/07/18 08:34:04;;;;;;;0.67;0.40;;;;;;;22.30;48.91;101933.25;5016619;28;20446;-89
2023/07/18 08:36:31;;;;;;;0.67;0.40;;;;;;;22.31;52.62;101932.31;5021587;28;20017;-89
2023/07/18 08:38:56;;;;;;;0.52;0.30;;;;;;;22.32;50.28;101927.91;5035920;28;20028;-89
2023/07/18 08:41:21;;;;;;;0.43;0.40;;;;;;;22.28;53.37;101923.69;5035002;28;20033;-90
2023/07/18 08:43:48;;;;;;;0.40;0.30;;;;;;;22.40;49.37;101919.59;5035873;28;20021;-89
2023/07/18 08:46:14;;;;;;;0.35;0.35;;;;;;;22.51;53.09;101914.69;5035187;28;20076;-89
2023/07/18 08:48:44;;;;;;;0.38;0.30;;;;;;;22.74;49.41;101915.34;5035886;28;20100;-89
2023/07/18 08:51:13;;;;;;;0.30;0.30;;;;;;;22.86;48.67;101909.41;5036125;28;20017;-88
2023/07/18 08:53:39;;;;;;;0.40;0.30;;;;;;;22.97;44.48;101912.34;5036434;28;20037;-90
2023/07/18 08:56:08;;;;;;;0.38;0.22;;;;;;;23.06;46.97;101912.84;5035698;28;20024;-87
2023/07/18 08:58:36;;;;;;;1.02;0.65;;;;;;;23.02;47.10;101913.94;5040333;28;20033;-89
2023/07/18 09:01:02;;;;;;;0.52;0.30;;;;;;;23.06;46.02;101910.19;5036252;28;20045;-89
2023/07/18 09:03:30;;;;;;;0.40;0.30;;;;;;;23.05;41.51;101905.84;5035179;28;20595;-88
2023/07/18 09:05:55;;;;;;;0.20;0.20;;;;;;;23.07;46.61;101906.63;5035806;28;20017;-89
2023/07/18 09:08:25;;;;;;;0.32;0.32;;;;;;;23.13;43.43;101896.56;5036017;28;20034;-90
2023/07/18 09:11:03;;;;;;;0.95;0.38;;;;;;;23.22;46.80;101899.69;5035446;28;20471;-88
2023/07/18 09:13:36;;;;;;;0.30;0.30;;;;;;;23.27;45.89;101898.53;5035289;28;20049;-89
2023/07/18 09:16:11;;;;;;;1.42;0.32;;;;;;;23.38;44.45;101897.09;5035084;28;20483;-84
2023/07/18 09:18:38;;;;;;;0.75;0.43;;;;;;;23.49;43.53;101896.50;5034507;28;20041;-87
2023/07/18 09:21:09;;;;;;;0.35;0.35;;;;;;;23.61;46.25;101890.56;5035137;28;20053;-88
2023/07/18 09:23:39;;;;;;;0.30;0.30;;;;;;;23.80;46.14;101890.41;5035936;28;20061;-92
2023/07/18 09:26:15;;;;;;;0.20;0.17;;;;;;;23.93;46.26;101885.28;5034832;28;20029;-84
2023/07/18 09:28:41;;;;;;;0.20;0.20;;;;;;;24.05;46.14;101884.63;5034895;28;20029;-86
2023/07/18 09:31:21;;;;;;;0.10;0.10;;;;;;;24.22;45.31;101880.19;5032851;28;20752;-83
2023/07/18 09:33:48;;;;;;;0.80;0.30;;;;;;;24.21;45.34;101876.66;5032238;28;20107;-81
2023/07/18 09:36:21;;;;;;;0.57;0.45;;;;;;;24.31;45.54;101878.81;5032763;28;20053;-88
2023/07/18 09:38:47;;;;;;;0.93;0.30;;;;;;;24.41;45.84;101874.69;5037238;28;20033;-87
2023/07/18 09:41:18;;;;;;;0.22;0.20;;;;;;;24.50;44.42;101867.97;5034809;28;20018;-88
2023/07/18 09:43:44;;;;;;;0.10;0.10;;;;;;;24.59;45.80;101871.88;5033320;28;20041;-89
2023/07/18 09:46:12;;;;;;;0.43;0.32;;;;;;;24.81;45.02;101876.84;5034765;28;20017;-88
2023/07/18 09:48:42;;;;;;;0.40;0.40;;;;;;;24.83;44.85;101874.91;5035728;28;20104;-89
2023/07/18 09:51:10;;;;;;;0.22;0.22;;;;;;;24.67;45.64;101864.31;5034844;28;20808;-88
2023/07/18 09:53:38;;;;;;;0.30;0.30;;;;;;;24.42;45.56;101865.78;5035528;28;20045;-88
2023/07/18 09:56:06;;;;;;;0.13;0.10;;;;;;;24.42;46.07;101872.88;5035906;28;20112;-88
2023/07/18 09:58:36;;;;;;;0.45;0.20;;;;;;;24.37;46.42;101855.41;5035157;28;20021;-88
2023/07/18 10:01:03;;;;;;;1.63;0.50;;;;;;;24.39;42.51;101868.59;5035953;28;20021;-89
2023/07/18 10:03:31;;;;;;;0.40;0.40;;;;;;;24.54;44.49;101866.03;5035537;28;20036;-89
2023/07/18 10:05:57;;;;;;;0.10;0.10;;;;;;;24.78;43.81;101861.09;5034939;28;20018;-89
2023/07/18 10:08:22;;;;;;;0.53;0.10;;;;;;;25.01;45.01;101851.72;5034963;28;20037;-88
2023/07/18 10:11:09;;;;;;;0.20;0.20;;;;;;;25.12;40.44;101861.69;5035151;28;20021;-87
2023/07/18 10:13:55;;;;;;;0.38;0.22;;;;;;;25.19;44.29;101851.56;5034654;28;20021;-89
2023/07/18 10:16:23;;;;;;;0.52;0.40;;;;;;;25.26;43.63;101851.09;5024048;28;20053;-89
2023/07/18 10:18:50;;;;;;;0.73;0.50;;;;;;;25.24;43.99;101844.16;5034999;28;20104;-89
2023/07/18 10:21:32;;;;;;;0.80;0.50;;;;;;;25.34;44.65;101839.13;5034393;28;20116;-88
2023/07/18 10:24:23;;;;;;;0.22;0.22;;;;;;;25.40;43.92;101826.34;5035169;28;20053;-90
2023/07/18 10:26:51;;;;;;;0.50;0.30;;;;;;;25.22;41.79;101824.81;5025560;28;20051;-88
2023/07/18 10:29:17;;;;;;;0.40;0.40;;;;;;;25.02;45.18;101815.41;5034930;28;20017;-89
2023/07/18 10:31:43;;;;;;;0.40;0.40;;;;;;;24.88;42.36;101818.91;5035095;28;20109;-88
2023/07/18 10:34:10;;;;;;;0.28;0.28;;;;;;;24.71;43.27;101817.28;5034032;28;20393;-88
2023/07/18 10:36:37;;;;;;;0.20;0.20;;;;;;;24.72;44.42;101805.69;5034465;28;20025;-89
2023/07/18 10:39:08;;;;;;;0.80;0.20;;;;;;;24.92;44.77;101808.00;5035316;28;20021;-89
2023/07/18 10:41:37;;;;;;;0.20;0.20;;;;;;;25.11;43.73;101812.19;5053932;28;20033;-89
2023/07/18 10:44:02;;;;;;;0.50;0.47;;;;;;;25.11;44.48;101810.38;5054697;28;20124;-89
2023/07/18 10:46:38;;;;;;;0.45;0.20;;;;;;;25.22;42.75;101806.22;5057654;28;20044;-89
2023/07/18 10:49:05;;;;;;;0.68;0.57;;;;;;;25.33;43.10;101808.19;5053884;28;20537;-90
2023/07/18 10:51:34;;;;;;;0.40;0.40;;;;;;;25.51;44.04;101819.50;5054311;28;20028;-90
2023/07/18 10:54:00;;;;;;;0.22;0.22;;;;;;;25.68;43.26;101799.81;5047539;28;20084;-88
2023/07/18 10:56:25;;;;;;;0.75;0.40;;;;;;;25.66;43.02;101791.94;5033342;28;20037;-90
2023/07/18 10:58:53;;;;;;;0.17;0.17;;;;;;;25.66;43.58;101799.06;5034684;28;20033;-90
2023/07/18 11:01:20;;;;;;;0.30;0.28;;;;;;;25.80;43.85;101796.34;5033706;28;20028;-89
2023/07/18 11:03:48;;;;;;;;;;;;;;;26.02;42.99;101797.59;5034879;28;20441;-90
2023/07/18 11:06:16;;;;;;;1.17;0.30;;;;;;;26.16;37.63;101788.72;5033771;28;20410;-89
2023/07/18 11:08:48;;;;;;;0.52;0.40;;;;;;;26.02;40.60;101785.16;5032786;28;20037;-92
2023/07/18 11:11:15;;;;;;;0.40;0.40;;;;;;;26.15;42.12;101792.34;5063406;22;20048;-89
2023/07/18 11:13:43;;;;;;;0.40;0.40;;;;;;;26.21;40.44;101789.28;5053937;28;20033;-90
2023/07/18 11:16:11;;;;;;;0.38;0.30;;;;;;;26.22;41.95;101791.00;5053057;28;20025;-89
2023/07/18 11:18:38;;;;;;;0.40;0.40;;;;;;;26.18;41.07;101790.34;5053882;28;20025;-87
2023/07/18 11:21:05;;;;;;;0.55;0.30;;;;;;;26.24;39.76;101789.06;5053316;28;20557;-88
2023/07/18 11:23:32;;;;;;;1.27;0.40;;;;;;;26.31;42.04;101786.84;5052831;28;20388;-88
2023/07/18 11:25:57;;;;;;;0.40;0.30;;;;;;;26.40;40.46;101786.25;5053356;28;20025;-89